Time;durP1;ratioP1;P1;durP2;ratioP2;P2;SDS_P1;SDS_P2;PMS_P1;PMS_P2;Temp;Humidity;BMP_temperature;BMP_pressure;BME280_temperature;BME280_humidity;BME280_pressure;Samples;Min_cycle;Max_cycle;Signal;HPM_P1;HPM_P2
2020/12/28 00:09:27;;;;;;;12.50;6.25;;;2.60;99.90;;;;;;812049;29;20433;-90
2020/12/28 00:12:47;;;;;;;17.50;7.78;;;2.60;99.90;;;;;;784951;29;20418;-90
2020/12/28 00:15:35;;;;;;;13.02;6.68;;;2.70;99.90;;;;;;1595374;29;20423;-88
2020/12/28 00:18:40;;;;;;;13.65;6.95;;;2.70;99.90;;;;;;1868171;29;20588;-88
2020/12/28 00:24:05;;;;;;;12.70;6.15;;;2.80;99.90;;;;;;1884549;29;20298;-89
2020/12/28 00:27:12;;;;;;;86.57;33.47;;;2.80;99.90;;;;;;1873513;29;21774;-88
2020/12/28 00:30:04;;;;;;;47.65;14.50;;;2.80;99.90;;;;;;1868630;29;20532;-88
2020/12/28 00:33:01;;;;;;;29.37;10.10;;;2.80;99.90;;;;;;1934192;29;20181;-88
2020/12/28 00:36:24;;;;;;;18.55;7.22;;;2.80;99.90;;;;;;1087240;29;20418;-89
2020/12/28 00:39:37;;;;;;;11.48;4.90;;;2.90;99.90;;;;;;1446595;29;20489;-89
2020/12/28 00:42:25;;;;;;;;;;;2.90;99.90;;;;;;1862696;29;20402;31
2020/12/28 00:45:29;;;;;;;7.87;4.53;;;2.90;99.90;;;;;;1862488;29;20402;-89
2020/12/28 00:48:21;;;;;;;6.97;4.75;;;2.90;99.90;;;;;;1868455;29;20510;-89
2020/12/28 00:51:28;;;;;;;9.33;5.17;;;2.90;99.90;;;;;;1783674;29;20437;-89
2020/12/28 00:54:29;;;;;;;8.70;5.32;;;3.00;99.90;;;;;;1924319;29;20522;-87
2020/12/28 00:57:39;;;;;;;8.15;4.75;;;2.90;99.90;;;;;;1858234;29;22348;-89
2020/12/28 01:00:48;;;;;;;7.90;5.05;;;3.00;99.90;;;;;;720607;29;21891;-89
2020/12/28 01:03:50;;;;;;;28.98;15.10;;;3.10;99.90;;;;;;1963568;29;20168;-89
2020/12/28 01:06:57;;;;;;;11.43;6.18;;;3.10;99.90;;;;;;1862791;29;20668;-88
2020/12/28 01:10:08;;;;;;;9.57;5.57;;;3.10;99.90;;;;;;1865791;29;20509;-89
2020/12/28 01:13:16;;;;;;;9.52;5.03;;;3.10;99.90;;;;;;1865440;29;21745;-88
2020/12/28 01:16:18;;;;;;;9.45;5.23;;;3.10;99.90;;;;;;1916494;29;20181;-88
2020/12/28 01:19:18;;;;;;;8.64;4.82;;;3.20;99.90;;;;;;1926466;29;20208;-88
2020/12/28 01:22:17;;;;;;;11.95;5.87;;;3.20;99.90;;;;;;1926150;29;20254;-88
2020/12/28 01:25:20;;;;;;;10.55;5.80;;;3.30;99.90;;;;;;1866979;29;20493;31
2020/12/28 01:28:25;;;;;;;8.43;5.22;;;3.30;99.90;;;;;;1843247;29;21702;-89
2020/12/28 01:31:18;;;;;;;7.57;4.50;;;3.30;99.90;;;;;;1854448;29;21849;-89
2020/12/28 01:34:27;;;;;;;8.27;5.20;;;3.40;99.90;;;;;;1864781;29;20408;31
2020/12/28 01:37:25;;;;;;;8.90;4.97;;;3.40;99.90;;;;;;1924588;29;20185;-89
2020/12/28 01:40:34;;;;;;;14.18;5.92;;;3.50;99.90;;;;;;1981746;29;20366;-89
2020/12/28 01:43:32;;;;;;;9.20;5.40;;;3.50;99.90;;;;;;1975988;29;20177;-89
2020/12/28 01:46:36;;;;;;;8.13;5.12;;;3.50;99.90;;;;;;1840394;29;20508;-89
2020/12/28 01:52:07;;;;;;;7.60;4.30;;;3.50;99.90;;;;;;1894901;30;20634;-89
2020/12/28 01:55:11;;;;;;;8.90;4.78;;;3.60;99.90;;;;;;1841145;30;20480;-89
2020/12/28 01:58:17;;;;;;;8.35;4.78;;;3.60;99.90;;;;;;1918002;29;20194;-92
2020/12/28 02:01:23;;;;;;;8.43;4.82;;;3.60;99.90;;;;;;1816786;30;21595;-92
2020/12/28 02:04:26;;;;;;;10.30;6.15;;;3.60;99.90;;;;;;1886072;29;20141;-91
2020/12/28 02:07:28;;;;;;;9.55;5.18;;;3.70;99.90;;;;;;719026;29;20416;-91
2020/12/28 02:10:32;;;;;;;8.32;4.45;;;3.70;99.90;;;;;;832791;30;21831;-90
2020/12/28 02:13:38;;;;;;;6.72;4.57;;;3.70;99.90;;;;;;2029450;30;20456;-91
2020/12/28 02:20:32;;;;;;;7.25;4.40;;;3.80;99.90;;;;;;781843;29;20407;-91
2020/12/28 02:34:48;;;;;;;;;;;3.80;99.90;;;;;;657580;29;21847;-92
2020/12/28 02:41:49;;;;;;;6.43;3.78;;;3.80;99.90;;;;;;924523;29;20420;-90
2020/12/28 02:55:32;;;;;;;6.03;3.90;;;3.70;99.90;;;;;;993622;29;21844;-90
2020/12/28 03:32:22;;;;;;;4.87;2.65;;;3.60;99.90;;;;;;664482;29;21899;-87
2020/12/28 03:58:04;;;;;;;8.45;3.15;;;3.70;99.90;;;;;;722933;29;20458;-90
2020/12/28 04:26:43;;;;;;;4.45;2.70;;;3.80;99.90;;;;;;667316;29;21891;-90
2020/12/28 04:33:24;;;;;;;7.28;3.35;;;3.90;99.90;;;;;;662085;29;21931;-91
2020/12/28 05:04:31;;;;;;;5.30;2.95;;;4.00;99.90;;;;;;1932631;29;20242;-88
2020/12/28 05:07:21;;;;;;;7.82;3.45;;;4.00;99.90;;;;;;1873999;29;20521;-88
2020/12/28 05:10:28;;;;;;;5.65;3.62;;;4.00;99.90;;;;;;1875755;29;20601;-89
2020/12/28 05:13:17;;;;;;;6.25;3.78;;;4.10;99.90;;;;;;1927729;29;20596;-89
2020/12/28 05:16:20;;;;;;;4.93;2.60;;;4.10;99.90;;;;;;1864584;29;20517;-88
2020/12/28 05:19:13;;;;;;;5.25;2.78;;;4.10;99.90;;;;;;1894292;29;20509;-88
2020/12/28 05:22:16;;;;;;;4.10;2.73;;;4.10;99.90;;;;;;1963770;29;21132;-89
2020/12/28 05:25:06;;;;;;;5.97;2.90;;;4.10;99.90;;;;;;1863066;29;20505;-88
2020/12/28 05:28:21;;;;;;;4.75;3.00;;;4.20;99.90;;;;;;1860977;29;20506;-89
2020/12/28 05:31:12;;;;;;;4.62;2.58;;;4.20;99.90;;;;;;1863567;29;20569;-89
2020/12/28 05:34:26;;;;;;;4.72;2.80;;;4.20;99.90;;;;;;1850235;29;20421;31
2020/12/28 05:37:15;;;;;;;4.65;2.75;;;4.20;99.90;;;;;;1855968;29;20503;-88
2020/12/28 05:40:29;;;;;;;4.12;2.00;;;4.20;99.90;;;;;;1914845;29;20231;-89
2020/12/28 05:45:53;;;;;;;3.62;2.37;;;4.10;99.90;;;;;;1852225;29;20519;-88
2020/12/28 05:49:12;;;;;;;4.75;2.83;;;4.20;99.90;;;;;;2004119;29;21898;-88
2020/12/28 05:55:00;;;;;;;5.72;2.80;;;4.20;99.90;;;;;;1856717;29;20421;-88
2020/12/28 05:58:08;;;;;;;4.45;3.00;;;4.20;99.90;;;;;;1852500;29;20527;-88
2020/12/28 06:01:00;;;;;;;5.05;3.12;;;4.20;99.90;;;;;;1855413;29;20519;-89
2020/12/28 06:04:06;;;;;;;3.40;2.45;;;4.20;99.90;;;;;;1867531;29;20547;-88
2020/12/28 06:06:57;;;;;;;5.70;3.28;;;4.20;99.90;;;;;;1930075;29;20251;-89
2020/12/28 06:09:58;;;;;;;5.68;2.70;;;4.20;99.90;;;;;;1974898;29;21031;-88
2020/12/28 06:12:55;;;;;;;4.00;2.62;;;4.20;99.90;;;;;;1847156;29;20531;-89
2020/12/28 06:16:05;;;;;;;4.43;2.83;;;4.20;99.90;;;;;;1846524;29;20566;-88
2020/12/28 06:18:56;;;;;;;4.45;2.50;;;4.20;99.90;;;;;;1902146;29;20186;-87
2020/12/28 06:21:55;;;;;;;3.72;2.28;;;4.20;99.90;;;;;;1973644;29;20248;-88
2020/12/28 06:25:02;;;;;;;5.00;3.10;;;4.20;99.90;;;;;;1436612;29;20440;-90
2020/12/28 06:28:02;;;;;;;4.75;2.53;;;4.20;99.90;;;;;;1310641;30;20409;-88
2020/12/28 06:33:20;;;;;;;5.15;2.90;;;4.20;99.90;;;;;;1736882;29;23073;-88
2020/12/28 06:39:43;;;;;;;6.03;3.50;;;4.20;99.90;;;;;;1289723;29;20386;-90
2020/12/28 06:43:15;;;;;;;6.30;3.20;;;4.20;99.90;;;;;;1020416;29;20510;-89
2020/12/28 06:46:03;;;;;;;;;;;4.20;99.90;;;;;;1870972;29;20521;-89
2020/12/28 06:49:09;;;;;;;7.30;3.70;;;4.20;99.90;;;;;;1853810;29;20472;-89
2020/12/28 06:52:01;;;;;;;7.78;3.80;;;4.20;99.90;;;;;;1960867;29;20745;-89
2020/12/28 06:55:06;;;;;;;4.30;2.80;;;4.20;99.90;;;;;;1850363;29;20519;-89
2020/12/28 06:57:52;;;;;;;7.15;3.83;;;4.30;99.90;;;;;;1935274;30;20166;-89
2020/12/28 07:01:03;;;;;;;5.95;3.20;;;4.30;99.90;;;;;;1831760;30;21732;-88
2020/12/28 07:03:55;;;;;;;7.07;3.47;;;4.30;99.90;;;;;;1840762;30;20688;-89
2020/12/28 07:07:03;;;;;;;4.50;3.30;;;4.30;99.90;;;;;;1821873;30;20432;31
2020/12/28 07:09:47;;;;;;;5.32;3.00;;;4.30;99.90;;;;;;1892854;29;19981;-89
2020/12/28 07:12:50;;;;;;;5.05;3.17;;;4.30;99.90;;;;;;1909097;29;20192;-88
2020/12/28 07:15:45;;;;;;;6.87;3.92;;;4.30;99.90;;;;;;1675133;29;20449;-90
2020/12/28 07:26:02;;;;;;;8.52;3.65;;;4.30;99.90;;;;;;661333;29;21831;-88
2020/12/28 07:32:57;;;;;;;7.78;3.83;;;4.40;99.90;;;;;;1002364;29;20396;-90
2020/12/28 07:39:21;;;;;;;7.37;3.95;;;4.40;99.90;;;;;;666637;29;21810;-88
2020/12/28 08:03:59;;;;;;;10.63;7.00;;;4.30;99.90;;;;;;1494737;29;20409;-90
2020/12/28 08:10:36;;;;;;;7.25;4.28;;;4.40;99.90;;;;;;850006;29;20425;-90
2020/12/28 08:17:10;;;;;;;5.85;3.97;;;4.40;99.90;;;;;;2062643;29;20442;-92
2020/12/28 08:27:29;;;;;;;7.35;3.87;;;4.50;99.90;;;;;;1878747;29;22281;-89
2020/12/28 08:30:37;;;;;;;7.50;4.53;;;4.50;99.90;;;;;;1877658;29;20509;-88
2020/12/28 08:33:27;;;;;;;11.55;5.97;;;4.60;99.90;;;;;;1883329;29;20525;-93
2020/12/28 08:36:28;;;;;;;20.08;8.65;;;4.60;99.90;;;;;;697707;29;21896;-91
2020/12/28 08:39:27;;;;;;;16.77;8.15;;;4.60;99.90;;;;;;723948;29;20461;-89
2020/12/28 08:42:38;;;;;;;16.33;7.40;;;4.60;99.90;;;;;;1351888;29;20464;-92
2020/12/28 08:49:31;;;;;;;10.77;5.47;;;4.60;99.90;;;;;;1629302;30;20409;-90
2020/12/28 08:52:54;;;;;;;8.18;5.12;;;4.60;99.90;;;;;;1891909;30;20141;-90
2020/12/28 08:56:01;;;;;;;6.95;4.20;;;4.60;99.90;;;;;;1854730;30;20771;-92
2020/12/28 08:59:03;;;;;;;12.63;4.40;;;4.60;99.90;;;;;;777868;30;21856;-91
2020/12/28 09:05:51;;;;;;;8.10;4.82;;;4.60;99.90;;;;;;1186050;30;21828;-91
2020/12/28 09:09:09;;;;;;;;;;;;;;;;;;;;;
2020/12/28 09:15:24;;;;;;;7.97;5.10;;;4.60;99.90;;;;;;1864453;30;20547;-92
2020/12/28 09:18:29;;;;;;;9.47;5.50;;;4.70;99.90;;;;;;1140744;29;21722;31
2020/12/28 09:21:47;;;;;;;7.68;4.90;;;4.60;99.90;;;;;;1002984;29;20470;-88
2020/12/28 09:25:10;;;;;;;10.00;5.70;;;4.70;99.90;;;;;;1309591;29;21767;31
2020/12/28 09:28:11;;;;;;;10.00;5.47;;;4.60;99.90;;;;;;2072638;29;20420;-92
2020/12/28 09:31:22;;;;;;;8.63;5.62;;;4.70;99.90;;;;;;1711699;29;20443;-91
2020/12/28 09:34:28;;;;;;;9.98;5.53;;;4.70;99.90;;;;;;1883596;29;20157;-92
2020/12/28 09:43:27;;;;;;;11.35;7.15;;;4.70;99.90;;;;;;2043441;29;20563;-92
2020/12/28 09:46:39;;;;;;;11.30;6.82;;;4.70;99.90;;;;;;2128388;29;20408;-90
2020/12/28 09:49:34;;;;;;;15.15;7.57;;;4.70;99.90;;;;;;1926246;29;20474;-90
2020/12/28 09:54:57;;;;;;;11.43;6.07;;;4.70;99.90;;;;;;1871766;29;21728;-90
2020/12/28 09:58:26;;;;;;;10.23;6.40;;;4.70;99.90;;;;;;1879110;29;21677;-92
2020/12/28 10:08:51;;;;;;;10.02;6.43;;;4.70;99.90;;;;;;1919138;29;20177;-91
2020/12/28 10:17:00;;;;;;;12.13;6.75;;;4.80;99.90;;;;;;1860235;29;21644;-95
2020/12/28 10:20:05;;;;;;;15.38;8.75;;;4.80;99.90;;;;;;2046122;29;20160;-90
2020/12/28 10:22:49;;;;;;;13.27;7.20;;;4.80;99.90;;;;;;2044640;29;20553;-91
2020/12/28 10:25:54;;;;;;;13.93;7.97;;;4.80;99.90;;;;;;1715238;29;20448;-91
2020/12/28 10:31:57;;;;;;;11.98;7.53;;;4.80;99.90;;;;;;1944440;29;20534;-92
2020/12/28 10:40:07;;;;;;;11.98;7.45;;;4.80;99.90;;;;;;2247016;29;22619;-93
2020/12/28 10:43:18;;;;;;;12.77;7.28;;;4.80;99.90;;;;;;2999859;29;20129;-88
2020/12/28 10:58:40;;;;;;;12.60;6.50;;;4.80;99.90;;;;;;2165242;30;20479;-93
2020/12/28 11:02:04;;;;;;;11.80;5.93;;;4.80;99.90;;;;;;1860705;29;20502;-93
2020/12/28 11:09:16;;;;;;;9.43;5.87;;;4.80;99.90;;;;;;3610573;29;20134;31
2020/12/28 11:12:26;;;;;;;9.45;5.30;;;4.80;99.90;;;;;;1845510;30;20517;-90
2020/12/28 11:15:18;;;;;;;11.45;6.28;;;4.80;99.90;;;;;;1865637;30;20978;-93
2020/12/28 11:18:19;;;;;;;13.15;6.30;;;4.80;99.90;;;;;;718076;30;21931;-90
2020/12/28 11:21:55;;;;;;;;;;;;;;;;;;;;;
2020/12/28 12:24:55;;;;;;;13.10;8.57;;;4.40;99.90;;;;;;1992744;28;20218;-92
2020/12/28 12:34:21;;;;;;;18.73;9.20;;;4.40;99.90;;;;;;4023326;28;20187;-91
2020/12/28 12:44:34;;;;;;;;;;;;;;;;;;;;;
2020/12/28 13:46:56;;;;;;;18.90;12.63;;;4.00;99.90;;;;;;2122665;28;21216;-90
2020/12/28 13:50:06;;;;;;;18.33;10.95;;;4.00;99.90;;;;;;2007236;28;21713;-92
2020/12/28 13:52:57;;;;;;;17.80;9.77;;;4.00;99.90;;;;;;1235629;29;21804;31
2020/12/28 13:59:38;;;;;;;18.67;10.23;;;4.00;99.90;;;;;;2136961;29;20496;-92
2020/12/28 14:02:47;;;;;;;14.20;8.73;;;4.10;99.90;;;;;;2122230;29;20545;31
2020/12/28 14:06:00;;;;;;;14.52;8.82;;;4.00;99.90;;;;;;2123811;29;20460;31
2020/12/28 14:26:06;;;;;;;20.20;10.88;;;4.30;99.90;;;;;;2075455;29;20251;-91
2020/12/28 14:36:20;;;;;;;23.60;13.48;;;4.70;99.90;;;;;;2341353;29;20175;-92
2020/12/28 14:43:10;;;;;;;25.77;14.90;;;4.50;99.90;;;;;;2781667;29;20464;-88
